Time;durP1;ratioP1;P1;durP2;ratioP2;P2;SDS_P1;SDS_P2;PMS_P1;PMS_P2;Temp;Humidity;BMP_temperature;BMP_pressure;BME280_temperature;BME280_humidity;BME280_pressure;Samples;Min_cycle;Max_cycle;Signal;HPM_P1;HPM_P2
2022/08/07 00:01:36;;;;;;;19.48;12.23;;;;;;;20.12;66.39;100085.56;4746278;30;20140;-84
2022/08/07 00:04:04;;;;;;;17.35;12.00;;;;;;;20.32;66.26;100133.06;4747843;30;20096;-83
2022/08/07 00:06:30;;;;;;;14.55;11.50;;;;;;;20.25;66.53;100121.09;4738582;30;20072;-85
2022/08/07 00:08:56;;;;;;;17.05;12.07;;;;;;;19.88;66.35;100058.44;4761082;29;20041;-82
2022/08/07 00:11:22;;;;;;;16.45;11.93;;;;;;;19.87;66.80;100057.53;4763892;30;20066;-83
2022/08/07 00:13:48;;;;;;;11.32;10.15;;;;;;;20.22;67.04;100115.06;4755726;30;20110;-82
2022/08/07 00:16:15;;;;;;;15.18;10.80;;;;;;;20.11;66.83;100108.47;4743393;30;20662;-82
2022/08/07 00:18:41;;;;;;;18.90;12.50;;;;;;;19.90;66.62;100083.00;4740999;30;20048;-81
2022/08/07 00:21:09;;;;;;;12.63;10.65;;;;;;;20.04;66.86;100106.19;4742567;30;20048;-82
2022/08/07 00:23:37;;;;;;;13.95;9.95;;;;;;;19.90;67.22;100093.56;4742586;30;20040;-82
2022/08/07 00:26:06;;;;;;;15.90;11.25;;;;;;;19.87;66.83;100094.50;4741092;30;20078;-82
2022/08/07 00:28:34;;;;;;;16.60;11.63;;;;;;;20.04;66.72;100119.38;4743489;30;20082;-82
2022/08/07 00:31:06;;;;;;;15.18;11.68;;;;;;;20.01;66.99;100118.59;4751987;30;20125;-82
2022/08/07 00:33:34;;;;;;;18.38;11.32;;;;;;;19.99;67.07;100116.91;4725843;30;20067;-81
2022/08/07 00:36:00;;;;;;;12.63;10.93;;;;;;;19.94;67.12;100119.75;4742396;30;20059;-81
2022/08/07 00:38:26;;;;;;;17.45;11.52;;;;;;;19.71;67.13;100094.31;4745036;30;20045;-83
2022/08/07 00:40:52;;;;;;;18.63;13.35;;;;;;;19.85;67.18;100131.56;4730513;30;20063;-81
2022/08/07 00:43:19;;;;;;;13.40;11.50;;;;;;;19.68;67.45;100112.94;4741924;30;20049;-82
2022/08/07 00:45:45;;;;;;;14.43;11.70;;;;;;;19.76;67.83;100131.91;4730483;30;20485;-82
2022/08/07 00:48:11;;;;;;;21.83;13.02;;;;;;;19.68;67.87;100120.84;4742050;30;20459;-83
2022/08/07 00:50:38;;;;;;;15.20;10.93;;;;;;;19.46;67.69;100081.28;4741290;30;20417;-84
2022/08/07 00:53:04;;;;;;;16.27;12.15;;;;;;;19.66;67.85;100118.25;4739465;30;20087;-83
2022/08/07 00:55:31;;;;;;;17.10;11.30;;;;;;;19.57;67.91;100103.66;4740526;30;21040;-82
2022/08/07 00:57:57;;;;;;;17.75;12.07;;;;;;;19.24;67.76;100059.28;4742257;30;20106;-81
2022/08/07 01:00:24;;;;;;;20.08;12.30;;;;;;;19.44;68.06;100086.63;4754578;30;20052;-80
2022/08/07 01:02:51;;;;;;;18.15;11.93;;;;;;;19.28;68.05;100065.28;4745577;30;20048;-83
2022/08/07 01:05:19;;;;;;;11.88;10.55;;;;;;;19.33;68.25;100078.28;4762994;30;20528;-81
2022/08/07 01:07:46;;;;;;;16.35;10.40;;;;;;;19.30;67.97;100081.91;4753588;30;20047;-81
2022/08/07 01:10:12;;;;;;;20.15;12.13;;;;;;;19.62;68.22;100127.25;4746682;30;20048;-83
2022/08/07 01:12:41;;;;;;;19.30;11.82;;;;;;;19.33;68.11;100088.84;4747523;30;20077;-83
2022/08/07 01:15:08;;;;;;;15.98;12.25;;;;;;;19.33;68.33;100094.09;4743925;30;20517;-82
2022/08/07 01:17:35;;;;;;;14.88;11.60;;;;;;;19.29;68.39;100103.94;4733956;30;20087;-82
2022/08/07 01:20:08;;;;;;;16.65;12.23;;;;;;;19.47;68.54;100127.84;4743548;30;20059;-82
2022/08/07 01:22:37;;;;;;;17.73;11.25;;;;;;;19.24;68.89;100100.63;4742249;30;20044;-82
2022/08/07 01:25:04;;;;;;;14.30;12.02;;;;;;;19.33;68.78;100121.38;4729660;30;20051;-81
2022/08/07 01:27:30;;;;;;;15.77;12.27;;;;;;;19.00;68.98;100070.81;4743721;30;20135;-81
2022/08/07 01:29:57;;;;;;;13.68;12.15;;;;;;;19.15;69.10;100098.38;4743687;30;20118;-81
2022/08/07 01:32:24;;;;;;;15.32;12.10;;;;;;;19.07;69.21;100082.84;4756958;30;20052;-81
2022/08/07 01:34:53;;;;;;;21.45;12.07;;;;;;;19.19;69.26;100107.88;4746508;30;20055;-81
2022/08/07 01:37:20;;;;;;;16.42;12.02;;;;;;;18.89;69.16;100063.31;4747095;30;20114;-81
2022/08/07 01:39:48;;;;;;;13.27;11.60;;;;;;;19.22;69.34;100111.25;4730317;30;20056;-82
2022/08/07 01:42:27;;;;;;;15.25;12.02;;;;;;;19.22;69.59;100118.28;4782081;29;20310;-83
2022/08/07 01:44:53;;;;;;;15.93;13.15;;;;;;;19.16;69.41;100105.38;4766290;29;20059;-82
2022/08/07 01:47:20;;;;;;;15.60;12.00;;;;;;;18.98;69.55;100072.66;4744230;30;20489;-82
2022/08/07 01:49:47;;;;;;;13.75;12.35;;;;;;;19.04;69.82;100090.88;4747001;30;20068;-83
2022/08/07 01:52:13;;;;;;;14.05;12.65;;;;;;;19.26;69.67;100120.75;4759110;30;20048;-82
2022/08/07 01:54:41;;;;;;;13.13;11.32;;;;;;;19.14;69.99;100094.84;4745660;30;20064;-82
2022/08/07 01:57:22;;;;;;;13.32;11.85;;;;;;;19.22;69.90;100103.34;4738626;30;20084;-82
2022/08/07 01:59:56;;;;;;;13.23;11.80;;;;;;;18.90;69.91;100055.31;4745458;30;20048;-84
2022/08/07 02:02:29;;;;;;;13.73;11.35;;;;;;;19.11;69.87;100085.31;4757469;30;20059;-82
2022/08/07 02:05:01;;;;;;;16.17;12.02;;;;;;;18.98;69.66;100067.38;4740679;30;20049;-80
2022/08/07 02:07:38;;;;;;;20.13;13.35;;;;;;;19.20;69.93;100105.16;4743181;30;20048;-80
2022/08/07 02:10:05;;;;;;;14.77;11.77;;;;;;;19.27;69.99;100111.94;4743031;30;20113;-81
2022/08/07 02:12:40;;;;;;;17.45;11.98;;;;;;;19.21;69.86;100101.63;4745280;30;20045;-81
2022/08/07 02:15:10;;;;;;;15.98;12.30;;;;;;;19.30;69.93;100112.72;4744387;30;20402;-81
2022/08/07 02:17:43;;;;;;;15.00;11.77;;;;;;;19.32;69.88;100113.50;4757341;30;20052;-79
2022/08/07 02:20:09;;;;;;;14.18;11.70;;;;;;;19.28;69.95;100107.50;4758780;30;20048;-80
2022/08/07 02:22:38;;;;;;;16.73;12.00;;;;;;;19.06;69.87;100055.59;4758318;30;20082;-78
2022/08/07 02:25:06;;;;;;;19.23;11.77;;;;;;;19.11;69.95;100058.94;4742106;30;20481;-80
2022/08/07 02:27:35;;;;;;;16.98;11.80;;;;;;;19.35;69.52;100093.16;4743330;30;20475;-78
2022/08/07 02:30:04;;;;;;;17.40;11.60;;;;;;;19.37;69.89;100087.78;4724891;30;20048;-78
2022/08/07 02:32:37;;;;;;;13.55;11.13;;;;;;;19.46;69.66;100099.75;4744127;30;20047;-80
2022/08/07 02:35:05;;;;;;;14.82;11.68;;;;;;;19.47;69.71;100091.78;4713064;30;20188;-81
2022/08/07 02:37:34;;;;;;;14.60;12.52;;;;;;;19.37;69.32;100071.97;4743022;30;20056;-80
2022/08/07 02:40:04;;;;;;;14.95;11.80;;;;;;;19.62;69.46;100100.84;4744749;30;20066;-80
2022/08/07 02:42:32;;;;;;;14.32;11.65;;;;;;;19.65;69.31;100099.84;4728803;30;20055;-80
2022/08/07 02:45:03;;;;;;;12.88;11.57;;;;;;;19.55;69.29;100076.47;4757061;30;20048;-80
2022/08/07 02:47:31;;;;;;;;;;;;;;;19.79;69.23;100112.47;4746949;30;20056;-80
2022/08/07 02:50:11;;;;;;;13.63;11.13;;;;;;;19.84;69.10;100108.72;4741264;30;19922;-79
2022/08/07 02:52:42;;;;;;;15.95;11.55;;;;;;;19.90;69.12;100120.81;4754903;30;20041;-81
2022/08/07 02:55:17;;;;;;;14.63;11.40;;;;;;;19.90;68.93;100099.69;4723672;30;20052;-80
2022/08/07 02:57:45;;;;;;;15.25;13.30;;;;;;;19.70;68.94;100063.56;4751821;30;20071;-81
2022/08/07 03:00:12;;;;;;;15.25;12.40;;;;;;;19.82;68.90;100070.94;4755061;30;20593;-81
2022/08/07 03:02:43;;;;;;;14.00;12.40;;;;;;;19.82;68.74;100057.75;4745002;30;20044;-82
2022/08/07 03:05:11;;;;;;;13.05;11.73;;;;;;;20.14;68.67;100105.72;4779567;29;20068;-81
2022/08/07 03:07:40;;;;;;;14.57;10.48;;;;;;;20.12;68.69;100081.13;4753078;30;20040;-81
2022/08/07 03:10:09;;;;;;;13.10;10.63;;;;;;;20.11;68.25;100071.50;4765110;29;20058;-81
2022/08/07 03:12:36;;;;;;;16.23;10.38;;;;;;;20.47;68.32;100107.75;4758818;29;20108;-78
2022/08/07 03:15:08;;;;;;;12.38;9.82;;;;;;;20.52;68.09;100107.56;4768018;29;20100;-81
2022/08/07 03:17:36;;;;;;;14.02;9.60;;;;;;;20.67;67.71;100115.72;4755510;30;20048;-80
2022/08/07 03:20:06;;;;;;;12.45;9.88;;;;;;;20.71;67.72;100099.63;4749620;30;20051;-79
2022/08/07 03:22:36;;;;;;;11.98;9.23;;;;;;;20.62;67.30;100076.28;4742897;30;20457;-79
2022/08/07 03:25:05;;;;;;;10.43;8.88;;;;;;;20.70;67.17;100081.22;4757779;30;20044;-80
2022/08/07 03:27:42;;;;;;;15.43;9.00;;;;;;;21.04;66.96;100114.88;4741985;30;20076;-81
2022/08/07 03:30:11;;;;;;;12.88;9.30;;;;;;;21.10;66.33;100103.16;4740114;30;20050;-79
2022/08/07 03:32:40;;;;;;;12.38;9.02;;;;;;;21.25;66.04;100109.50;4726922;30;20409;-79
2022/08/07 03:35:11;;;;;;;13.43;8.75;;;;;;;21.31;65.71;100111.81;4741174;30;20214;-79
2022/08/07 03:37:42;;;;;;;13.32;8.18;;;;;;;21.44;66.04;100111.25;4754421;30;20052;-79
2022/08/07 03:40:09;;;;;;;12.23;8.93;;;;;;;21.43;65.29;100083.06;4746788;30;20052;-79
2022/08/07 03:42:37;;;;;;;10.20;8.77;;;;;;;21.47;64.75;100077.53;4749677;30;20060;-80
2022/08/07 03:45:06;;;;;;;11.80;8.90;;;;;;;21.71;64.58;100102.88;4751901;30;20051;-80
2022/08/07 03:47:34;;;;;;;10.63;9.23;;;;;;;21.65;64.47;100090.78;4744839;30;20586;-80
2022/08/07 03:50:03;;;;;;;11.82;8.35;;;;;;;21.77;63.90;100086.66;4733396;30;20501;-79
2022/08/07 03:52:36;;;;;;;9.98;8.55;;;;;;;21.94;64.11;100093.75;4748413;30;20120;-80
2022/08/07 03:55:06;;;;;;;11.70;8.20;;;;;;;21.99;63.85;100091.72;4742434;30;20144;-80
2022/08/07 03:57:32;;;;;;;9.00;7.63;;;;;;;22.07;63.75;100092.16;4748922;30;20127;-79
2022/08/07 03:59:59;;;;;;;11.20;7.78;;;;;;;22.22;63.25;100093.16;4742508;30;20054;-78
2022/08/07 04:02:27;;;;;;;10.48;7.55;;;;;;;22.29;62.83;100080.44;4737128;30;20047;-80
2022/08/07 04:04:53;;;;;;;10.35;7.75;;;;;;;22.50;62.26;100097.03;4765786;30;20578;-80
2022/08/07 04:07:20;;;;;;;11.25;7.55;;;;;;;22.48;62.40;100071.53;4761786;30;20101;-79
2022/08/07 04:09:49;;;;;;;12.38;8.05;;;;;;;22.68;62.12;100067.78;4749372;30;20111;-81
2022/08/07 04:12:18;;;;;;;9.95;8.10;;;;;;;22.94;61.51;100073.44;4746213;30;20065;-80
2022/08/07 04:14:45;;;;;;;11.80;7.40;;;;;;;23.21;60.80;100086.97;4763787;30;20036;-81
2022/08/07 04:17:14;;;;;;;12.23;7.22;;;;;;;23.34;59.89;100094.22;4771099;30;20095;-80
2022/08/07 04:19:42;;;;;;;8.32;6.90;;;;;;;23.28;59.90;100075.06;4746097;30;20062;-81
2022/08/07 04:22:09;;;;;;;9.88;6.90;;;;;;;23.48;59.33;100088.97;4745926;30;20051;-81
2022/08/07 04:24:41;;;;;;;8.63;6.63;;;;;;;23.69;58.50;100101.94;4744290;30;20051;-82
2022/08/07 04:27:11;;;;;;;10.88;7.20;;;;;;;23.83;58.48;100087.81;4742207;30;20052;-82
2022/08/07 04:29:37;;;;;;;11.40;6.90;;;;;;;23.99;58.03;100095.78;4743369;30;20545;-82
2022/08/07 04:32:08;;;;;;;13.40;7.53;;;;;;;24.13;57.58;100097.59;4730304;30;20490;-82
2022/08/07 04:34:36;;;;;;;7.28;6.43;;;;;;;23.86;57.08;100050.44;4750519;30;20533;-81
2022/08/07 04:37:03;;;;;;;10.80;7.30;;;;;;;24.04;56.84;100064.47;4752818;30;20084;-82
2022/08/07 04:39:29;;;;;;;9.60;6.80;;;;;;;24.14;56.47;100038.19;4748125;30;20597;-82
2022/08/07 04:41:56;;;;;;;9.40;6.72;;;;;;;24.29;56.06;100058.47;4773862;30;20079;-80
2022/08/07 04:44:25;;;;;;;11.43;6.50;;;;;;;24.49;55.88;100069.66;4771458;30;20028;-82
2022/08/07 04:47:10;;;;;;;11.23;6.53;;;;;;;24.75;55.53;100091.13;4756906;30;20043;-81
2022/08/07 04:49:54;;;;;;;9.38;6.25;;;;;;;24.93;55.19;100079.31;4782458;29;20048;-82
2022/08/07 04:52:45;;;;;;;14.23;6.55;;;;;;;24.83;54.17;100043.59;4739842;30;20137;-81
2022/08/07 04:55:30;;;;;;;;;;;;;;;25.25;54.04;100091.47;4744587;30;20151;-82
2022/08/07 04:58:21;;;;;;;8.57;6.03;;;;;;;25.39;54.41;100098.53;4733154;30;19926;-83
2022/08/07 05:01:13;;;;;;;10.10;6.80;;;;;;;25.44;53.39;100068.97;4747376;30;20087;-80
2022/08/07 05:03:56;;;;;;;7.25;6.38;;;;;;;25.73;53.44;100077.63;4743622;30;20040;-80
2022/08/07 05:06:44;;;;;;;7.53;5.63;;;;;;;25.93;52.26;100073.63;4745028;30;20055;-83
2022/08/07 05:09:39;;;;;;;7.40;5.80;;;;;;;26.12;51.88;100097.22;4749805;30;20237;-83
2022/08/07 05:12:09;;;;;;;10.35;5.93;;;;;;;26.39;51.30;100100.72;4749406;30;20136;-83
2022/08/07 05:14:39;;;;;;;8.18;6.00;;;;;;;26.59;51.35;100100.16;4764573;30;20517;-81
2022/08/07 05:17:08;;;;;;;8.35;6.72;;;;;;;26.74;50.93;100090.19;4743899;30;20074;-80
2022/08/07 05:19:39;;;;;;;12.48;5.88;;;;;;;26.90;50.01;100097.97;4745692;30;20185;-81
2022/08/07 05:22:10;;;;;;;8.68;5.93;;;;;;;27.08;49.64;100097.59;4750937;30;20044;-83
2022/08/07 05:24:44;;;;;;;7.85;5.70;;;;;;;27.02;48.64;100050.84;4754766;30;20045;-81
2022/08/07 05:27:13;;;;;;;9.65;5.30;;;;;;;27.40;48.53;100098.84;4750032;30;20052;-83
2022/08/07 05:29:43;;;;;;;8.82;5.18;;;;;;;27.43;48.19;100066.53;4754300;30;20056;-82
2022/08/07 05:32:10;;;;;;;9.30;5.90;;;;;;;27.92;47.31;100086.84;4747194;30;20121;-81
2022/08/07 05:34:39;;;;;;;11.65;5.50;;;;;;;28.23;46.64;100075.63;4748211;30;20075;-82
2022/08/07 05:37:07;;;;;;;7.45;4.65;;;;;;;28.93;46.08;100097.69;4734381;30;20475;-81
2022/08/07 05:39:51;;;;;;;8.18;5.28;;;;;;;29.79;44.60;100053.16;4737454;30;20037;-83
2022/08/07 05:42:18;;;;;;;9.65;4.93;;;;;;;30.82;42.92;100088.09;4752955;30;20074;-84
2022/08/07 05:44:45;;;;;;;7.82;5.30;;;;;;;30.85;41.02;100059.09;4750466;30;20138;-80
2022/08/07 05:47:12;;;;;;;10.88;5.20;;;;;;;31.62;40.04;100050.38;4750927;30;20044;-83
2022/08/07 05:49:39;;;;;;;9.20;4.53;;;;;;;33.28;38.04;100053.25;4763993;30;20055;-82
2022/08/07 05:52:05;;;;;;;7.97;4.53;;;;;;;34.63;35.77;100077.22;4736401;30;20075;-83
2022/08/07 05:54:32;;;;;;;10.77;4.97;;;;;;;35.91;33.81;100078.66;4750600;30;20084;-84
2022/08/07 05:57:01;;;;;;;5.20;4.10;;;;;;;37.28;31.87;100077.53;4737745;30;20580;-85
2022/08/07 05:59:49;;;;;;;8.13;4.47;;;;;;;38.23;29.77;100041.84;4752710;30;20080;-84
2022/08/07 06:02:19;;;;;;;13.23;4.60;;;;;;;39.36;28.22;100086.81;4749347;30;20590;-84
2022/08/07 06:04:55;;;;;;;8.98;4.55;;;;;;;39.23;27.49;100058.41;4739091;30;20520;-84
2022/08/07 06:07:22;;;;;;;7.72;4.20;;;;;;;40.12;26.93;100088.00;4753390;30;20056;-82
2022/08/07 06:09:50;;;;;;;7.55;4.40;;;;;;;40.94;25.58;100077.19;4757126;30;20047;-84
2022/08/07 06:12:16;;;;;;;8.35;4.15;;;;;;;41.12;24.66;100040.34;4752023;30;20687;-83
2022/08/07 06:14:42;;;;;;;9.02;4.00;;;;;;;42.20;23.59;100082.84;4734594;30;20044;-84
2022/08/07 06:17:11;;;;;;;9.13;4.18;;;;;;;42.32;23.34;100060.28;4749231;30;20456;-85
2022/08/07 06:19:39;;;;;;;5.47;4.32;;;;;;;43.04;22.12;100068.34;4767175;29;20036;-82
2022/08/07 06:22:10;;;;;;;5.18;4.30;;;;;;;43.27;21.84;100072.41;4766181;29;20044;-84
2022/08/07 06:25:02;;;;;;;5.93;3.80;;;;;;;42.91;21.76;100082.13;4738951;30;20174;-85
2022/08/07 06:27:45;;;;;;;7.15;4.28;;;;;;;42.37;21.39;100053.19;4737963;30;20053;-84
2022/08/07 06:30:23;;;;;;;7.93;4.25;;;;;;;41.32;21.87;100037.59;4734637;30;20039;-84
2022/08/07 06:32:50;;;;;;;9.35;4.38;;;;;;;41.00;22.53;100059.19;4746129;30;20056;-84
2022/08/07 06:35:18;;;;;;;5.68;3.90;;;;;;;40.99;22.22;100057.50;4758000;30;20518;-85
2022/08/07 06:38:21;;;;;;;9.82;3.97;;;;;;;40.23;22.75;100021.22;4735126;30;20101;-82
2022/08/07 06:55:29;;;;;;;8.00;3.85;;;;;;;39.25;23.91;100023.69;4635273;30;20101;-83
2022/08/07 06:58:02;;;;;;;6.38;3.75;;;;;;;38.70;23.81;100094.03;4667850;30;20056;-83
2022/08/07 07:00:45;;;;;;;7.43;4.30;;;;;;;39.15;24.31;100015.06;4666721;30;20116;-84
2022/08/07 07:08:17;;;;;;;6.88;3.90;;;;;;;44.50;20.09;100085.47;4741462;30;20117;-84
2022/08/07 07:10:47;;;;;;;7.35;4.38;;;;;;;45.65;18.87;100046.13;4733041;30;20424;-84
2022/08/07 07:18:23;;;;;;;8.63;4.10;;;;;;;46.55;17.34;100032.03;4738388;30;20055;-83
2022/08/07 07:21:00;;;;;;;6.22;4.20;;;;;;;47.51;16.71;100080.69;4743648;30;20082;-86
2022/08/07 07:23:31;;;;;;;5.32;4.43;;;;;;;48.07;16.39;100073.50;4747699;30;20054;-85
2022/08/07 07:26:07;;;;;;;6.45;4.32;;;;;;;48.85;15.44;100066.91;4749105;30;20074;-85
2022/08/07 07:28:46;;;;;;;9.88;4.70;;;;;;;49.33;14.77;100044.91;4737520;30;20139;-85
2022/08/07 07:31:22;;;;;;;6.97;5.22;;;;;;;49.48;14.81;100087.59;4750066;30;20103;-87
2022/08/07 07:33:53;;;;;;;8.43;4.43;;;;;;;49.82;14.16;100045.78;4749831;30;20044;-86
2022/08/07 07:36:23;;;;;;;6.53;4.70;;;;;;;50.49;14.44;100084.72;4748938;30;20056;-85
2022/08/07 07:38:50;;;;;;;7.80;4.65;;;;;;;51.18;13.26;100076.22;4752964;30;20044;-85
2022/08/07 07:45:02;;;;;;;12.00;5.15;;;;;;;52.22;12.71;100082.31;4750975;30;20092;-86
2022/08/07 07:48:00;;;;;;;8.35;4.88;;;;;;;51.85;12.17;100084.44;4738310;30;20118;-85
2022/08/07 07:51:42;;;;;;;6.97;4.88;;;;;;;51.27;12.71;100016.41;4729856;30;20044;-86
2022/08/07 07:55:11;;;;;;;8.80;4.80;;;;;;;52.12;12.50;100067.41;4713745;30;20067;-84
2022/08/07 07:58:05;;;;;;;;;;;;;;;;;;;;;
2022/08/07 08:00:40;;;;;;;8.38;5.05;;;;;;;51.73;11.67;100009.06;4747524;30;20056;-86
2022/08/07 08:03:17;;;;;;;12.82;4.78;;;;;;;51.71;11.96;100026.00;4751185;30;20063;-86
2022/08/07 08:05:46;;;;;;;9.85;4.85;;;;;;;52.17;11.40;100035.22;4760801;30;20066;-84
2022/08/07 08:08:13;;;;;;;7.13;4.63;;;;;;;52.09;11.21;100036.63;4724083;30;20056;-85
2022/08/07 08:10:43;;;;;;;9.13;5.13;;;;;;;52.04;11.43;100037.47;4753871;30;20159;-86
2022/08/07 08:13:14;;;;;;;6.65;4.50;;;;;;;52.14;12.13;100019.94;4739061;30;20055;-87
2022/08/07 08:15:42;;;;;;;5.57;4.22;;;;;;;52.78;11.02;100045.03;4753716;30;20206;-82
2022/08/07 08:18:13;;;;;;;5.82;4.22;;;;;;;53.59;10.74;100047.31;4753881;30;20044;-84
2022/08/07 08:20:40;;;;;;;8.40;4.65;;;;;;;53.73;10.74;100068.88;4750279;30;20109;-84
2022/08/07 08:28:44;;;;;;;9.95;4.53;;;;;;;54.20;9.42;100021.78;4740630;30;20056;-89
2022/08/07 08:31:44;;;;;;;8.00;4.50;;;;;;;54.03;9.57;100022.31;4764266;30;20034;-83
2022/08/07 08:34:11;;;;;;;4.75;4.13;;;;;;;53.79;10.09;100022.38;4752058;30;20060;-86
2022/08/07 08:36:39;;;;;;;9.73;4.22;;;;;;;53.63;9.79;100030.06;4766658;30;20108;-86
2022/08/07 08:39:10;;;;;;;4.50;4.05;;;;;;;52.86;10.58;100007.50;4747608;30;20048;-84
2022/08/07 08:41:46;;;;;;;4.85;3.78;;;;;;;52.83;10.16;100033.09;4781794;30;20035;-86
2022/08/07 08:44:34;;;;;;;7.88;4.00;;;;;;;52.95;10.26;100039.09;4744734;30;20044;-90
2022/08/07 08:47:24;;;;;;;6.05;4.18;;;;;;;52.95;10.27;100027.19;4773837;30;20058;-85
2022/08/07 08:50:28;;;;;;;9.15;4.43;;;;;;;53.24;10.43;100024.38;4750479;30;20045;-87
2022/08/07 08:56:30;;;;;;;10.27;4.30;;;;;;;52.40;10.42;99990.13;4760267;30;20098;-85
2022/08/07 08:59:15;;;;;;;5.45;4.13;;;;;;;52.19;10.27;100016.34;4765435;30;20052;-89
2022/08/07 09:02:17;;;;;;;6.88;4.18;;;;;;;51.55;11.09;100008.56;4754861;30;20056;-87
2022/08/07 09:05:09;;;;;;;4.35;3.85;;;;;;;49.91;11.43;99991.66;4753178;30;21202;-87
2022/08/07 09:07:49;;;;;;;8.63;3.60;;;;;;;48.67;12.26;99977.03;4756354;30;20135;-87
2022/08/07 09:10:22;;;;;;;4.97;3.95;;;;;;;48.55;12.41;99985.53;4742099;30;20048;-88
2022/08/07 09:13:12;;;;;;;5.22;3.40;;;;;;;47.53;12.50;99947.41;4745515;30;20631;-87
2022/08/07 09:15:46;;;;;;;7.50;3.33;;;;;;;47.18;13.11;99949.41;4760960;30;20111;-87
2022/08/07 09:18:51;;;;;;;4.43;3.28;;;;;;;46.82;13.24;99992.91;4752546;30;20055;-88
2022/08/07 09:21:47;;;;;;;4.35;3.50;;;;;;;46.47;13.83;99997.50;4758102;30;20067;-85
2022/08/07 09:24:40;;;;;;;6.32;3.22;;;;;;;46.81;13.49;99991.22;4757786;30;20057;-84
2022/08/07 09:27:23;;;;;;;5.93;3.10;;;;;;;47.48;13.68;99986.75;4733804;30;20180;-89
2022/08/07 09:30:01;;;;;;;5.63;3.72;;;;;;;47.25;13.26;99982.28;4725666;30;20048;-82
2022/08/07 09:33:01;;;;;;;4.95;3.40;;;;;;;45.16;14.18;99970.28;4757237;30;20571;-81
2022/08/07 09:35:43;;;;;;;9.73;3.65;;;;;;;43.24;15.87;99977.06;4754228;30;20585;-87
2022/08/07 09:38:30;;;;;;;5.32;3.25;;;;;;;42.70;16.49;99931.00;4758830;30;20048;-85
2022/08/07 09:41:06;;;;;;;8.02;3.70;;;;;;;43.41;16.48;99975.41;4758265;30;20119;-81
2022/08/07 09:43:50;;;;;;;7.80;4.38;;;;;;;44.49;15.84;99969.47;4759237;30;20059;-83
2022/08/07 09:46:31;;;;;;;5.43;3.45;;;;;;;44.62;15.37;99948.38;4754342;30;20055;-82
2022/08/07 09:49:20;;;;;;;3.85;3.28;;;;;;;44.47;15.47;99926.94;4741254;30;20059;-84
2022/08/07 09:52:03;;;;;;;4.82;3.80;;;;;;;45.51;14.97;99957.63;4752549;30;20054;-81
2022/08/07 09:54:58;;;;;;;8.02;3.90;;;;;;;45.22;14.69;99960.28;4765192;29;20036;-89
2022/08/07 09:57:33;;;;;;;7.88;3.80;;;;;;;43.81;15.99;99954.97;4727488;30;20045;-82
2022/08/07 10:00:10;;;;;;;7.85;3.70;;;;;;;42.34;16.42;99938.78;4719047;30;20050;-82
2022/08/07 10:02:59;;;;;;;4.60;3.42;;;;;;;41.30;17.38;99949.63;4737596;30;20084;-83
2022/08/07 10:05:50;;;;;;;5.43;3.40;;;;;;;40.35;17.87;99952.31;4733550;30;20060;-83
2022/08/07 10:08:46;;;;;;;;;;;;;;;;;;;;;
2022/08/07 10:11:38;;;;;;;6.20;3.28;;;;;;;39.59;18.50;99967.66;4743125;30;20053;-83
2022/08/07 10:14:52;;;;;;;5.55;3.10;;;;;;;39.39;19.10;99929.44;4714675;30;20057;-84
2022/08/07 10:17:52;;;;;;;13.32;3.45;;;;;;;40.79;17.95;99914.63;4730610;30;20080;-84
2022/08/07 10:20:21;;;;;;;;;;;;;;;40.85;17.89;99931.22;4719839;30;20037;-85
2022/08/07 10:23:04;;;;;;;6.18;3.28;;;;;;;41.10;18.17;99931.41;4722213;30;19930;-84
2022/08/07 10:26:02;;;;;;;5.13;3.10;;;;;;;41.22;18.22;99907.91;4715329;30;20132;-84
2022/08/07 10:28:56;;;;;;;7.63;4.72;;;;;;;41.79;17.53;99936.53;4699458;30;20138;-84
2022/08/07 10:31:34;;;;;;;5.95;3.75;;;;;;;41.87;17.68;99924.50;4712825;30;20053;-84
2022/08/07 10:34:07;;;;;;;5.72;3.28;;;;;;;40.66;18.61;99947.34;4713343;30;20053;-84
2022/08/07 10:36:53;;;;;;;6.65;3.53;;;;;;;39.69;19.05;99934.63;4713858;30;20693;-84
2022/08/07 10:39:50;;;;;;;4.13;3.30;;;;;;;39.20;19.64;99941.84;4718314;30;20117;-84
2022/08/07 10:42:23;;;;;;;5.07;3.58;;;;;;;39.44;19.71;99937.84;4710756;30;20064;-86
2022/08/07 10:45:13;;;;;;;4.68;3.50;;;;;;;39.50;19.65;99940.81;4713862;30;20057;-82
2022/08/07 10:47:57;;;;;;;5.72;3.78;;;;;;;38.91;20.27;99883.91;4702047;30;20080;-82
2022/08/07 10:50:33;;;;;;;5.78;3.60;;;;;;;39.00;20.60;99881.88;4711077;30;20031;-83
2022/08/07 10:53:33;;;;;;;10.93;3.90;;;;;;;39.06;20.53;99930.03;4723737;30;20033;-81
2022/08/07 10:56:21;;;;;;;3.83;3.30;;;;;;;38.26;21.16;99908.38;4727968;30;20095;-85
2022/08/07 10:59:18;;;;;;;4.75;3.53;;;;;;;37.74;21.25;99880.41;4754968;30;20101;-87
2022/08/07 11:01:48;;;;;;;4.10;3.63;;;;;;;37.43;21.48;99924.84;4771416;30;20849;-85
2022/08/07 11:04:19;;;;;;;5.70;3.65;;;;;;;36.88;21.85;99889.75;4750700;30;20055;-84
2022/08/07 11:07:17;;;;;;;8.88;3.58;;;;;;;36.74;21.91;99910.41;4747201;30;20055;-84
2022/08/07 11:09:51;;;;;;;8.50;3.75;;;;;;;36.44;21.97;99861.50;4677350;30;20053;-85
2022/08/07 11:12:29;;;;;;;6.88;3.72;;;;;;;36.26;21.92;99868.06;4691961;30;20046;-85
2022/08/07 11:15:03;;;;;;;6.55;3.85;;;;;;;36.34;21.60;99897.78;4746697;30;20132;-85
2022/08/07 11:17:38;;;;;;;7.70;3.78;;;;;;;36.15;22.16;99896.41;4748764;30;20056;-85
2022/08/07 11:20:13;;;;;;;6.75;3.40;;;;;;;35.63;22.30;99843.72;4747114;30;20055;-84
2022/08/07 11:23:02;;;;;;;5.00;3.55;;;;;;;35.84;23.07;99899.91;4745129;30;20106;-82
2022/08/07 11:25:49;;;;;;;6.25;3.47;;;;;;;35.78;22.91;99900.59;4758300;30;20083;-84
2022/08/07 11:28:24;;;;;;;5.30;3.10;;;;;;;35.65;23.02;99901.16;4745907;30;20101;-83
2022/08/07 11:31:15;;;;;;;6.38;3.40;;;;;;;35.44;22.95;99901.72;4745466;30;20559;-85
2022/08/07 11:33:56;;;;;;;7.95;3.03;;;;;;;35.50;22.90;99905.63;4745209;30;20055;-87
2022/08/07 11:36:22;;;;;;;4.20;3.45;;;;;;;35.35;23.08;99898.22;4745771;30;20048;-83
2022/08/07 11:39:04;;;;;;;7.13;3.88;;;;;;;35.40;23.10;99895.84;4744439;30;20054;-86
2022/08/07 11:41:41;;;;;;;7.45;3.67;;;;;;;35.04;23.11;99838.66;4739484;30;20056;-85
2022/08/07 11:44:18;;;;;;;4.78;3.38;;;;;;;35.24;23.46;99909.38;4747709;30;20044;-83
2022/08/07 11:46:59;;;;;;;5.60;3.30;;;;;;;34.67;23.09;99838.16;4748552;30;20121;-84
2022/08/07 11:49:42;;;;;;;5.45;3.30;;;;;;;35.05;23.00;99916.00;4732856;30;20481;-82
2022/08/07 11:52:27;;;;;;;7.28;3.58;;;;;;;34.83;22.84;99900.28;4744633;30;20144;-87
2022/08/07 11:55:11;;;;;;;4.32;3.80;;;;;;;34.74;23.37;99863.50;4756380;30;20040;-86
2022/08/07 12:01:01;;;;;;;7.05;3.10;;;;;;;34.71;23.25;99911.59;5119009;24;20128;-83
2022/08/07 12:04:06;;;;;;;7.05;3.08;;;;;;;34.53;22.80;99928.81;5387478;24;20071;-83
2022/08/07 12:06:53;;;;;;;5.80;2.70;;;;;;;34.10;22.86;99904.56;4751090;30;20052;-82
2022/08/07 12:09:45;;;;;;;3.70;2.92;;;;;;;33.85;22.89;99903.59;4746598;30;20079;-86
2022/08/07 12:12:17;;;;;;;4.65;2.90;;;;;;;33.71;23.28;99881.66;4732743;30;20060;-84
2022/08/07 12:14:48;;;;;;;4.57;2.83;;;;;;;33.49;23.47;99862.34;4746884;30;20108;-83
2022/08/07 12:17:19;;;;;;;4.30;2.85;;;;;;;33.60;23.96;99900.81;4727761;30;20135;-87
2022/08/07 12:20:01;;;;;;;5.47;3.00;;;;;;;33.30;24.28;99876.03;4739941;30;20048;-83
2022/08/07 12:22:36;;;;;;;6.15;3.17;;;;;;;33.48;24.16;99876.84;4740955;30;20064;-83
2022/08/07 12:28:33;;;;;;;2.90;2.60;;;;;;;33.93;23.59;99890.19;4754136;30;20060;-85
2022/08/07 12:31:10;;;;;;;4.68;3.00;;;;;;;33.73;23.39;99855.38;4739239;30;20068;-84
2022/08/07 12:33:37;;;;;;;3.50;2.67;;;;;;;33.57;23.89;99844.50;4738010;30;20421;-85
2022/08/07 12:36:06;;;;;;;6.88;3.15;;;;;;;33.51;23.74;99866.75;4737535;30;20120;-85
2022/08/07 12:38:33;;;;;;;5.22;3.00;;;;;;;33.41;23.68;99866.88;4725021;30;20075;-85
2022/08/07 12:41:02;;;;;;;4.90;3.10;;;;;;;33.45;23.92;99897.84;4709591;30;20549;-86
2022/08/07 12:43:31;;;;;;;7.95;2.85;;;;;;;33.35;24.27;99909.59;4739549;30;20127;-85
2022/08/07 12:46:01;;;;;;;4.30;2.90;;;;;;;33.36;23.90;99913.13;4740842;30;20113;-85